<?xml version="1.0" encoding="UTF-8" standalone="no" ?>
<gpx xmlns="http://www.topografix.com/GPX/1/1" xmlns:xsi="http://www.w3.org/2001/XMLSchema-instance" xsi:schemaLocation="http://www.topografix.com/GPX/1/1 http://www.topografix.com/GPX/1/1/gpx.xsd" version="1.1" creator="VisuGPX - https://www.visugpx.com">
  <metadata>
    <name>rando st dizan du gua 9 km</name>
    <desc><![CDATA[photos de la rando dispo en suivant le lien [url]http://rando.pedestre.33.over-blog.com/2020/08/rando-saint-dizant-du-gua-10-km.html[/url]]]></desc>
  </metadata>
  <trk>
    <name><![CDATA[rando st dizan du gua 9 km]]></name>
    <trkseg>
      <trkpt lat="45.43243" lon="-0.70467">
        <ele>13</ele>
        <time>2018-03-01T16:40:47Z</time>
      </trkpt>
      <trkpt lat="45.43243" lon="-0.70468">
        <ele>13</ele>
        <time>2018-03-01T16:41:47Z</time>
      </trkpt>
      <trkpt lat="45.43244" lon="-0.70467">
        <ele>13</ele>
        <time>2018-03-01T16:42:47Z</time>
      </trkpt>
      <trkpt lat="45.43244" lon="-0.7047">
        <ele>13</ele>
        <time>2018-03-01T16:43:47Z</time>
      </trkpt>
      <trkpt lat="45.43244" lon="-0.7047">
        <ele>13</ele>
        <time>2018-03-01T16:44:47Z</time>
      </trkpt>
      <trkpt lat="45.43244" lon="-0.70469">
        <ele>13</ele>
        <time>2018-03-01T16:45:47Z</time>
      </trkpt>
      <trkpt lat="45.43244" lon="-0.7047">
        <ele>13</ele>
        <time>2018-03-01T16:46:47Z</time>
      </trkpt>
      <trkpt lat="45.43244" lon="-0.70471">
        <ele>13</ele>
        <time>2018-03-01T16:47:47Z</time>
      </trkpt>
      <trkpt lat="45.43244" lon="-0.70471">
        <ele>13</ele>
        <time>2018-03-01T16:48:47Z</time>
      </trkpt>
      <trkpt lat="45.43246" lon="-0.70473">
        <ele>13</ele>
        <time>2018-03-01T16:49:47Z</time>
      </trkpt>
      <trkpt lat="45.43246" lon="-0.70475">
        <ele>13</ele>
        <time>2018-03-01T16:50:47Z</time>
      </trkpt>
      <trkpt lat="45.43245" lon="-0.70476">
        <ele>13</ele>
        <time>2018-03-01T16:51:47Z</time>
      </trkpt>
      <trkpt lat="45.43244" lon="-0.70476">
        <ele>13</ele>
        <time>2018-03-01T16:52:47Z</time>
      </trkpt>
      <trkpt lat="45.43244" lon="-0.70475">
        <ele>13</ele>
        <time>2018-03-01T16:53:47Z</time>
      </trkpt>
      <trkpt lat="45.43244" lon="-0.70475">
        <ele>13</ele>
        <time>2018-03-01T16:54:47Z</time>
      </trkpt>
      <trkpt lat="45.43244" lon="-0.70472">
        <ele>13</ele>
        <time>2018-03-01T16:55:47Z</time>
      </trkpt>
      <trkpt lat="45.43243" lon="-0.70473">
        <ele>13</ele>
        <time>2018-03-01T16:56:47Z</time>
      </trkpt>
      <trkpt lat="45.43244" lon="-0.70474">
        <ele>13</ele>
        <time>2018-03-01T16:57:47Z</time>
      </trkpt>
      <trkpt lat="45.43242" lon="-0.70473">
        <ele>13</ele>
        <time>2018-03-01T16:58:47Z</time>
      </trkpt>
      <trkpt lat="45.43236" lon="-0.70486">
        <ele>13</ele>
        <time>2018-03-01T16:59:47Z</time>
      </trkpt>
      <trkpt lat="45.43231" lon="-0.70487">
        <ele>12</ele>
        <time>2018-03-01T17:00:47Z</time>
      </trkpt>
      <trkpt lat="45.43212" lon="-0.70492">
        <ele>12</ele>
        <time>2018-03-01T17:01:47Z</time>
      </trkpt>
      <trkpt lat="45.43163" lon="-0.70517">
        <ele>11</ele>
        <time>2018-03-01T17:02:47Z</time>
      </trkpt>
      <trkpt lat="45.4316" lon="-0.70519">
        <ele>11</ele>
        <time>2018-03-01T17:03:47Z</time>
      </trkpt>
      <trkpt lat="45.43141" lon="-0.70525">
        <ele>10</ele>
        <time>2018-03-01T17:04:47Z</time>
      </trkpt>
      <trkpt lat="45.43128" lon="-0.70531">
        <ele>9</ele>
        <time>2018-03-01T17:05:47Z</time>
      </trkpt>
      <trkpt lat="45.43098" lon="-0.70543">
        <ele>8</ele>
        <time>2018-03-01T17:06:47Z</time>
      </trkpt>
      <trkpt lat="45.43066" lon="-0.70564">
        <ele>6</ele>
        <time>2018-03-01T17:07:47Z</time>
      </trkpt>
      <trkpt lat="45.43064" lon="-0.70567">
        <ele>6</ele>
        <time>2018-03-01T17:08:47Z</time>
      </trkpt>
      <trkpt lat="45.43044" lon="-0.70581">
        <ele>6</ele>
        <time>2018-03-01T17:09:47Z</time>
      </trkpt>
      <trkpt lat="45.43024" lon="-0.70594">
        <ele>7</ele>
        <time>2018-03-01T17:10:47Z</time>
      </trkpt>
      <trkpt lat="45.43002" lon="-0.7061">
        <ele>8</ele>
        <time>2018-03-01T17:11:47Z</time>
      </trkpt>
      <trkpt lat="45.42995" lon="-0.70614">
        <ele>8</ele>
        <time>2018-03-01T17:12:47Z</time>
      </trkpt>
      <trkpt lat="45.42982" lon="-0.70622">
        <ele>9</ele>
        <time>2018-03-01T17:13:47Z</time>
      </trkpt>
      <trkpt lat="45.42965" lon="-0.70635">
        <ele>10</ele>
        <time>2018-03-01T17:14:47Z</time>
      </trkpt>
      <trkpt lat="45.42942" lon="-0.7065">
        <ele>11</ele>
        <time>2018-03-01T17:15:47Z</time>
      </trkpt>
      <trkpt lat="45.42922" lon="-0.70661">
        <ele>12</ele>
        <time>2018-03-01T17:16:47Z</time>
      </trkpt>
      <trkpt lat="45.42899" lon="-0.70673">
        <ele>11</ele>
        <time>2018-03-01T17:17:47Z</time>
      </trkpt>
      <trkpt lat="45.42873" lon="-0.70681">
        <ele>11</ele>
        <time>2018-03-01T17:18:47Z</time>
      </trkpt>
      <trkpt lat="45.42858" lon="-0.70686">
        <ele>10</ele>
        <time>2018-03-01T17:19:47Z</time>
      </trkpt>
      <trkpt lat="45.42842" lon="-0.70692">
        <ele>10</ele>
        <time>2018-03-01T17:20:47Z</time>
      </trkpt>
      <trkpt lat="45.42834" lon="-0.70698">
        <ele>10</ele>
        <time>2018-03-01T17:21:47Z</time>
      </trkpt>
      <trkpt lat="45.42811" lon="-0.70703">
        <ele>10</ele>
        <time>2018-03-01T17:22:47Z</time>
      </trkpt>
      <trkpt lat="45.4278" lon="-0.70713">
        <ele>11</ele>
        <time>2018-03-01T17:23:47Z</time>
      </trkpt>
      <trkpt lat="45.42775" lon="-0.70715">
        <ele>11</ele>
        <time>2018-03-01T17:24:47Z</time>
      </trkpt>
      <trkpt lat="45.42753" lon="-0.70727">
        <ele>13</ele>
        <time>2018-03-01T17:25:47Z</time>
      </trkpt>
      <trkpt lat="45.42739" lon="-0.70739">
        <ele>13</ele>
        <time>2018-03-01T17:26:47Z</time>
      </trkpt>
      <trkpt lat="45.42724" lon="-0.70756">
        <ele>14</ele>
        <time>2018-03-01T17:27:47Z</time>
      </trkpt>
      <trkpt lat="45.42712" lon="-0.70774">
        <ele>15</ele>
        <time>2018-03-01T17:28:47Z</time>
      </trkpt>
      <trkpt lat="45.4271" lon="-0.70776">
        <ele>15</ele>
        <time>2018-03-01T17:29:47Z</time>
      </trkpt>
      <trkpt lat="45.42691" lon="-0.70803">
        <ele>17</ele>
        <time>2018-03-01T17:30:47Z</time>
      </trkpt>
      <trkpt lat="45.4268" lon="-0.7082">
        <ele>18</ele>
        <time>2018-03-01T17:31:47Z</time>
      </trkpt>
      <trkpt lat="45.42669" lon="-0.7084">
        <ele>19</ele>
        <time>2018-03-01T17:32:47Z</time>
      </trkpt>
      <trkpt lat="45.42654" lon="-0.70861">
        <ele>20</ele>
        <time>2018-03-01T17:33:47Z</time>
      </trkpt>
      <trkpt lat="45.4264" lon="-0.70875">
        <ele>20</ele>
        <time>2018-03-01T17:34:47Z</time>
      </trkpt>
      <trkpt lat="45.42624" lon="-0.70891">
        <ele>20</ele>
        <time>2018-03-01T17:35:47Z</time>
      </trkpt>
      <trkpt lat="45.42609" lon="-0.7091">
        <ele>21</ele>
        <time>2018-03-01T17:36:47Z</time>
      </trkpt>
      <trkpt lat="45.42588" lon="-0.70936">
        <ele>20</ele>
        <time>2018-03-01T17:37:47Z</time>
      </trkpt>
      <trkpt lat="45.42581" lon="-0.70946">
        <ele>20</ele>
        <time>2018-03-01T17:38:47Z</time>
      </trkpt>
      <trkpt lat="45.42559" lon="-0.70973">
        <ele>20</ele>
        <time>2018-03-01T17:39:47Z</time>
      </trkpt>
      <trkpt lat="45.42538" lon="-0.70997">
        <ele>20</ele>
        <time>2018-03-01T17:40:47Z</time>
      </trkpt>
      <trkpt lat="45.42516" lon="-0.71018">
        <ele>20</ele>
        <time>2018-03-01T17:41:47Z</time>
      </trkpt>
      <trkpt lat="45.42494" lon="-0.71037">
        <ele>20</ele>
        <time>2018-03-01T17:42:47Z</time>
      </trkpt>
      <trkpt lat="45.42476" lon="-0.71052">
        <ele>19</ele>
        <time>2018-03-01T17:43:47Z</time>
      </trkpt>
      <trkpt lat="45.42459" lon="-0.71065">
        <ele>19</ele>
        <time>2018-03-01T17:44:47Z</time>
      </trkpt>
      <trkpt lat="45.4244" lon="-0.7108">
        <ele>19</ele>
        <time>2018-03-01T17:45:47Z</time>
      </trkpt>
      <trkpt lat="45.42424" lon="-0.71095">
        <ele>18</ele>
        <time>2018-03-01T17:46:47Z</time>
      </trkpt>
      <trkpt lat="45.42407" lon="-0.71109">
        <ele>18</ele>
        <time>2018-03-01T17:47:47Z</time>
      </trkpt>
      <trkpt lat="45.42391" lon="-0.71122">
        <ele>18</ele>
        <time>2018-03-01T17:48:47Z</time>
      </trkpt>
      <trkpt lat="45.42371" lon="-0.71139">
        <ele>18</ele>
        <time>2018-03-01T17:49:47Z</time>
      </trkpt>
      <trkpt lat="45.42341" lon="-0.71165">
        <ele>19</ele>
        <time>2018-03-01T17:50:47Z</time>
      </trkpt>
      <trkpt lat="45.42326" lon="-0.71175">
        <ele>19</ele>
        <time>2018-03-01T17:51:47Z</time>
      </trkpt>
      <trkpt lat="45.42311" lon="-0.71184">
        <ele>19</ele>
        <time>2018-03-01T17:52:47Z</time>
      </trkpt>
      <trkpt lat="45.42297" lon="-0.71196">
        <ele>18</ele>
        <time>2018-03-01T17:53:47Z</time>
      </trkpt>
      <trkpt lat="45.42281" lon="-0.71207">
        <ele>18</ele>
        <time>2018-03-01T17:54:47Z</time>
      </trkpt>
      <trkpt lat="45.42264" lon="-0.71219">
        <ele>17</ele>
        <time>2018-03-01T17:55:47Z</time>
      </trkpt>
      <trkpt lat="45.42241" lon="-0.7124">
        <ele>17</ele>
        <time>2018-03-01T17:56:47Z</time>
      </trkpt>
      <trkpt lat="45.42215" lon="-0.71262">
        <ele>17</ele>
        <time>2018-03-01T17:57:47Z</time>
      </trkpt>
      <trkpt lat="45.42193" lon="-0.71283">
        <ele>18</ele>
        <time>2018-03-01T17:58:47Z</time>
      </trkpt>
      <trkpt lat="45.42181" lon="-0.71312">
        <ele>18</ele>
        <time>2018-03-01T17:59:47Z</time>
      </trkpt>
      <trkpt lat="45.42183" lon="-0.71349">
        <ele>19</ele>
        <time>2018-03-01T18:00:47Z</time>
      </trkpt>
      <trkpt lat="45.42183" lon="-0.71388">
        <ele>19</ele>
        <time>2018-03-01T18:01:47Z</time>
      </trkpt>
      <trkpt lat="45.42179" lon="-0.71416">
        <ele>19</ele>
        <time>2018-03-01T18:02:47Z</time>
      </trkpt>
      <trkpt lat="45.42165" lon="-0.71436">
        <ele>19</ele>
        <time>2018-03-01T18:03:47Z</time>
      </trkpt>
      <trkpt lat="45.42148" lon="-0.71451">
        <ele>18</ele>
        <time>2018-03-01T18:04:47Z</time>
      </trkpt>
      <trkpt lat="45.42129" lon="-0.71466">
        <ele>19</ele>
        <time>2018-03-01T18:05:47Z</time>
      </trkpt>
      <trkpt lat="45.42107" lon="-0.71483">
        <ele>19</ele>
        <time>2018-03-01T18:06:47Z</time>
      </trkpt>
      <trkpt lat="45.4209" lon="-0.71497">
        <ele>19</ele>
        <time>2018-03-01T18:07:47Z</time>
      </trkpt>
      <trkpt lat="45.42072" lon="-0.71513">
        <ele>19</ele>
        <time>2018-03-01T18:08:47Z</time>
      </trkpt>
      <trkpt lat="45.42055" lon="-0.71532">
        <ele>19</ele>
        <time>2018-03-01T18:09:47Z</time>
      </trkpt>
      <trkpt lat="45.42046" lon="-0.7154">
        <ele>19</ele>
        <time>2018-03-01T18:10:47Z</time>
      </trkpt>
      <trkpt lat="45.42033" lon="-0.71549">
        <ele>20</ele>
        <time>2018-03-01T18:11:47Z</time>
      </trkpt>
      <trkpt lat="45.42018" lon="-0.71557">
        <ele>20</ele>
        <time>2018-03-01T18:12:47Z</time>
      </trkpt>
      <trkpt lat="45.41999" lon="-0.71569">
        <ele>20</ele>
        <time>2018-03-01T18:13:47Z</time>
      </trkpt>
      <trkpt lat="45.4196" lon="-0.71593">
        <ele>22</ele>
        <time>2018-03-01T18:14:47Z</time>
      </trkpt>
      <trkpt lat="45.41939" lon="-0.71606">
        <ele>23</ele>
        <time>2018-03-01T18:15:47Z</time>
      </trkpt>
      <trkpt lat="45.4192" lon="-0.71617">
        <ele>24</ele>
        <time>2018-03-01T18:16:47Z</time>
      </trkpt>
      <trkpt lat="45.41894" lon="-0.71633">
        <ele>27</ele>
        <time>2018-03-01T18:17:47Z</time>
      </trkpt>
      <trkpt lat="45.41872" lon="-0.7165">
        <ele>30</ele>
        <time>2018-03-01T18:18:47Z</time>
      </trkpt>
      <trkpt lat="45.41868" lon="-0.71652">
        <ele>30</ele>
        <time>2018-03-01T18:19:47Z</time>
      </trkpt>
      <trkpt lat="45.41853" lon="-0.71648">
        <ele>32</ele>
        <time>2018-03-01T18:20:47Z</time>
      </trkpt>
      <trkpt lat="45.4185" lon="-0.71643">
        <ele>32</ele>
        <time>2018-03-01T18:21:47Z</time>
      </trkpt>
      <trkpt lat="45.41845" lon="-0.71627">
        <ele>33</ele>
        <time>2018-03-01T18:22:47Z</time>
      </trkpt>
      <trkpt lat="45.41842" lon="-0.71619">
        <ele>34</ele>
        <time>2018-03-01T18:23:47Z</time>
      </trkpt>
      <trkpt lat="45.41839" lon="-0.71612">
        <ele>34</ele>
        <time>2018-03-01T18:24:47Z</time>
      </trkpt>
      <trkpt lat="45.41826" lon="-0.71614">
        <ele>36</ele>
        <time>2018-03-01T18:25:47Z</time>
      </trkpt>
      <trkpt lat="45.41823" lon="-0.71616">
        <ele>36</ele>
        <time>2018-03-01T18:26:47Z</time>
      </trkpt>
      <trkpt lat="45.41806" lon="-0.71627">
        <ele>38</ele>
        <time>2018-03-01T18:27:47Z</time>
      </trkpt>
      <trkpt lat="45.41789" lon="-0.71643">
        <ele>40</ele>
        <time>2018-03-01T18:28:47Z</time>
      </trkpt>
      <trkpt lat="45.41778" lon="-0.71655">
        <ele>41</ele>
        <time>2018-03-01T18:29:47Z</time>
      </trkpt>
      <trkpt lat="45.41768" lon="-0.7167">
        <ele>43</ele>
        <time>2018-03-01T18:30:47Z</time>
      </trkpt>
      <trkpt lat="45.41752" lon="-0.71689">
        <ele>44</ele>
        <time>2018-03-01T18:31:47Z</time>
      </trkpt>
      <trkpt lat="45.41719" lon="-0.71723">
        <ele>46</ele>
        <time>2018-03-01T18:32:47Z</time>
      </trkpt>
      <trkpt lat="45.41715" lon="-0.71726">
        <ele>47</ele>
        <time>2018-03-01T18:33:47Z</time>
      </trkpt>
      <trkpt lat="45.4171" lon="-0.7173">
        <ele>47</ele>
        <time>2018-03-01T18:34:47Z</time>
      </trkpt>
      <trkpt lat="45.41704" lon="-0.71737">
        <ele>47</ele>
        <time>2018-03-01T18:35:47Z</time>
      </trkpt>
      <trkpt lat="45.41699" lon="-0.7174">
        <ele>48</ele>
        <time>2018-03-01T18:36:47Z</time>
      </trkpt>
      <trkpt lat="45.4169" lon="-0.71747">
        <ele>49</ele>
        <time>2018-03-01T18:37:47Z</time>
      </trkpt>
      <trkpt lat="45.41669" lon="-0.71765">
        <ele>51</ele>
        <time>2018-03-01T18:38:47Z</time>
      </trkpt>
      <trkpt lat="45.41667" lon="-0.71768">
        <ele>51</ele>
        <time>2018-03-01T18:39:47Z</time>
      </trkpt>
      <trkpt lat="45.41666" lon="-0.71767">
        <ele>51</ele>
        <time>2018-03-01T18:40:47Z</time>
      </trkpt>
      <trkpt lat="45.41664" lon="-0.71768">
        <ele>51</ele>
        <time>2018-03-01T18:41:47Z</time>
      </trkpt>
      <trkpt lat="45.41658" lon="-0.71775">
        <ele>52</ele>
        <time>2018-03-01T18:42:47Z</time>
      </trkpt>
      <trkpt lat="45.41656" lon="-0.71777">
        <ele>52</ele>
        <time>2018-03-01T18:43:47Z</time>
      </trkpt>
      <trkpt lat="45.41652" lon="-0.71779">
        <ele>52</ele>
        <time>2018-03-01T18:44:47Z</time>
      </trkpt>
      <trkpt lat="45.41631" lon="-0.71797">
        <ele>52</ele>
        <time>2018-03-01T18:45:47Z</time>
      </trkpt>
      <trkpt lat="45.41611" lon="-0.71813">
        <ele>53</ele>
        <time>2018-03-01T18:46:47Z</time>
      </trkpt>
      <trkpt lat="45.41576" lon="-0.71843">
        <ele>54</ele>
        <time>2018-03-01T18:47:47Z</time>
      </trkpt>
      <trkpt lat="45.4156" lon="-0.7185">
        <ele>53</ele>
        <time>2018-03-01T18:48:47Z</time>
      </trkpt>
      <trkpt lat="45.41558" lon="-0.71845">
        <ele>53</ele>
        <time>2018-03-01T18:49:47Z</time>
      </trkpt>
      <trkpt lat="45.4155" lon="-0.71811">
        <ele>53</ele>
        <time>2018-03-01T18:50:47Z</time>
      </trkpt>
      <trkpt lat="45.41534" lon="-0.71734">
        <ele>52</ele>
        <time>2018-03-01T18:51:47Z</time>
      </trkpt>
      <trkpt lat="45.41526" lon="-0.71695">
        <ele>53</ele>
        <time>2018-03-01T18:52:47Z</time>
      </trkpt>
      <trkpt lat="45.41515" lon="-0.71663">
        <ele>53</ele>
        <time>2018-03-01T18:53:47Z</time>
      </trkpt>
      <trkpt lat="45.41502" lon="-0.71629">
        <ele>54</ele>
        <time>2018-03-01T18:54:47Z</time>
      </trkpt>
      <trkpt lat="45.41486" lon="-0.71592">
        <ele>54</ele>
        <time>2018-03-01T18:55:47Z</time>
      </trkpt>
      <trkpt lat="45.41469" lon="-0.71558">
        <ele>53</ele>
        <time>2018-03-01T18:56:47Z</time>
      </trkpt>
      <trkpt lat="45.41456" lon="-0.71531">
        <ele>53</ele>
        <time>2018-03-01T18:57:47Z</time>
      </trkpt>
      <trkpt lat="45.41437" lon="-0.71501">
        <ele>54</ele>
        <time>2018-03-01T18:58:47Z</time>
      </trkpt>
      <trkpt lat="45.41403" lon="-0.71454">
        <ele>54</ele>
        <time>2018-03-01T18:59:47Z</time>
      </trkpt>
      <trkpt lat="45.41385" lon="-0.71428">
        <ele>55</ele>
        <time>2018-03-01T19:00:47Z</time>
      </trkpt>
      <trkpt lat="45.41368" lon="-0.71404">
        <ele>56</ele>
        <time>2018-03-01T19:01:47Z</time>
      </trkpt>
      <trkpt lat="45.41351" lon="-0.71381">
        <ele>57</ele>
        <time>2018-03-01T19:02:47Z</time>
      </trkpt>
      <trkpt lat="45.41333" lon="-0.71358">
        <ele>58</ele>
        <time>2018-03-01T19:03:47Z</time>
      </trkpt>
      <trkpt lat="45.41317" lon="-0.71335">
        <ele>58</ele>
        <time>2018-03-01T19:04:47Z</time>
      </trkpt>
      <trkpt lat="45.41301" lon="-0.7131">
        <ele>57</ele>
        <time>2018-03-01T19:05:47Z</time>
      </trkpt>
      <trkpt lat="45.4129" lon="-0.71287">
        <ele>56</ele>
        <time>2018-03-01T19:06:47Z</time>
      </trkpt>
      <trkpt lat="45.41285" lon="-0.71273">
        <ele>56</ele>
        <time>2018-03-01T19:07:47Z</time>
      </trkpt>
      <trkpt lat="45.41281" lon="-0.71264">
        <ele>56</ele>
        <time>2018-03-01T19:08:47Z</time>
      </trkpt>
      <trkpt lat="45.4128" lon="-0.7126">
        <ele>56</ele>
        <time>2018-03-01T19:09:47Z</time>
      </trkpt>
      <trkpt lat="45.41278" lon="-0.71256">
        <ele>56</ele>
        <time>2018-03-01T19:10:47Z</time>
      </trkpt>
      <trkpt lat="45.41279" lon="-0.71256">
        <ele>56</ele>
        <time>2018-03-01T19:11:47Z</time>
      </trkpt>
      <trkpt lat="45.41279" lon="-0.71256">
        <ele>56</ele>
        <time>2018-03-01T19:12:47Z</time>
      </trkpt>
      <trkpt lat="45.41278" lon="-0.71256">
        <ele>56</ele>
        <time>2018-03-01T19:13:47Z</time>
      </trkpt>
      <trkpt lat="45.41279" lon="-0.71257">
        <ele>56</ele>
        <time>2018-03-01T19:14:47Z</time>
      </trkpt>
      <trkpt lat="45.41279" lon="-0.71257">
        <ele>56</ele>
        <time>2018-03-01T19:15:47Z</time>
      </trkpt>
      <trkpt lat="45.41278" lon="-0.71255">
        <ele>56</ele>
        <time>2018-03-01T19:16:47Z</time>
      </trkpt>
      <trkpt lat="45.41279" lon="-0.71254">
        <ele>56</ele>
        <time>2018-03-01T19:17:47Z</time>
      </trkpt>
      <trkpt lat="45.41278" lon="-0.71249">
        <ele>56</ele>
        <time>2018-03-01T19:18:47Z</time>
      </trkpt>
      <trkpt lat="45.41276" lon="-0.71248">
        <ele>56</ele>
        <time>2018-03-01T19:19:47Z</time>
      </trkpt>
      <trkpt lat="45.41261" lon="-0.71213">
        <ele>55</ele>
        <time>2018-03-01T19:20:47Z</time>
      </trkpt>
      <trkpt lat="45.41245" lon="-0.71184">
        <ele>55</ele>
        <time>2018-03-01T19:21:47Z</time>
      </trkpt>
      <trkpt lat="45.41231" lon="-0.71162">
        <ele>54</ele>
        <time>2018-03-01T19:22:47Z</time>
      </trkpt>
      <trkpt lat="45.41217" lon="-0.71144">
        <ele>54</ele>
        <time>2018-03-01T19:23:47Z</time>
      </trkpt>
      <trkpt lat="45.41119" lon="-0.71027">
        <ele>52</ele>
        <time>2018-03-01T19:24:47Z</time>
      </trkpt>
      <trkpt lat="45.41099" lon="-0.71003">
        <ele>51</ele>
        <time>2018-03-01T19:25:47Z</time>
      </trkpt>
      <trkpt lat="45.41082" lon="-0.70983">
        <ele>50</ele>
        <time>2018-03-01T19:26:47Z</time>
      </trkpt>
      <trkpt lat="45.41063" lon="-0.70962">
        <ele>49</ele>
        <time>2018-03-01T19:27:47Z</time>
      </trkpt>
      <trkpt lat="45.41039" lon="-0.70941">
        <ele>48</ele>
        <time>2018-03-01T19:28:47Z</time>
      </trkpt>
      <trkpt lat="45.41015" lon="-0.70929">
        <ele>47</ele>
        <time>2018-03-01T19:29:47Z</time>
      </trkpt>
      <trkpt lat="45.40993" lon="-0.70919">
        <ele>46</ele>
        <time>2018-03-01T19:30:47Z</time>
      </trkpt>
      <trkpt lat="45.40947" lon="-0.70907">
        <ele>44</ele>
        <time>2018-03-01T19:31:47Z</time>
      </trkpt>
      <trkpt lat="45.40923" lon="-0.70897">
        <ele>44</ele>
        <time>2018-03-01T19:32:47Z</time>
      </trkpt>
      <trkpt lat="45.40915" lon="-0.70863">
        <ele>46</ele>
        <time>2018-03-01T19:33:47Z</time>
      </trkpt>
      <trkpt lat="45.40914" lon="-0.70832">
        <ele>48</ele>
        <time>2018-03-01T19:34:47Z</time>
      </trkpt>
      <trkpt lat="45.40913" lon="-0.70766">
        <ele>51</ele>
        <time>2018-03-01T19:35:47Z</time>
      </trkpt>
      <trkpt lat="45.4091" lon="-0.70756">
        <ele>51</ele>
        <time>2018-03-01T19:36:47Z</time>
      </trkpt>
      <trkpt lat="45.40911" lon="-0.70751">
        <ele>52</ele>
        <time>2018-03-01T19:37:47Z</time>
      </trkpt>
      <trkpt lat="45.40911" lon="-0.70725">
        <ele>53</ele>
        <time>2018-03-01T19:38:47Z</time>
      </trkpt>
      <trkpt lat="45.40911" lon="-0.70694">
        <ele>54</ele>
        <time>2018-03-01T19:39:47Z</time>
      </trkpt>
      <trkpt lat="45.4091" lon="-0.70678">
        <ele>54</ele>
        <time>2018-03-01T19:40:47Z</time>
      </trkpt>
      <trkpt lat="45.40909" lon="-0.70651">
        <ele>55</ele>
        <time>2018-03-01T19:41:47Z</time>
      </trkpt>
      <trkpt lat="45.40908" lon="-0.70619">
        <ele>55</ele>
        <time>2018-03-01T19:42:47Z</time>
      </trkpt>
      <trkpt lat="45.40909" lon="-0.70597">
        <ele>56</ele>
        <time>2018-03-01T19:43:47Z</time>
      </trkpt>
      <trkpt lat="45.4091" lon="-0.70581">
        <ele>56</ele>
        <time>2018-03-01T19:44:47Z</time>
      </trkpt>
      <trkpt lat="45.4091" lon="-0.70557">
        <ele>56</ele>
        <time>2018-03-01T19:45:47Z</time>
      </trkpt>
      <trkpt lat="45.40908" lon="-0.70551">
        <ele>55</ele>
        <time>2018-03-01T19:46:47Z</time>
      </trkpt>
      <trkpt lat="45.40909" lon="-0.70525">
        <ele>55</ele>
        <time>2018-03-01T19:47:47Z</time>
      </trkpt>
      <trkpt lat="45.40908" lon="-0.70496">
        <ele>55</ele>
        <time>2018-03-01T19:48:47Z</time>
      </trkpt>
      <trkpt lat="45.40906" lon="-0.70458">
        <ele>55</ele>
        <time>2018-03-01T19:49:47Z</time>
      </trkpt>
      <trkpt lat="45.40902" lon="-0.70423">
        <ele>55</ele>
        <time>2018-03-01T19:50:47Z</time>
      </trkpt>
      <trkpt lat="45.40895" lon="-0.70392">
        <ele>56</ele>
        <time>2018-03-01T19:51:47Z</time>
      </trkpt>
      <trkpt lat="45.40889" lon="-0.70378">
        <ele>57</ele>
        <time>2018-03-01T19:52:47Z</time>
      </trkpt>
      <trkpt lat="45.40885" lon="-0.7036">
        <ele>57</ele>
        <time>2018-03-01T19:53:47Z</time>
      </trkpt>
      <trkpt lat="45.40876" lon="-0.70331">
        <ele>59</ele>
        <time>2018-03-01T19:54:47Z</time>
      </trkpt>
      <trkpt lat="45.40855" lon="-0.70266">
        <ele>61</ele>
        <time>2018-03-01T19:55:47Z</time>
      </trkpt>
      <trkpt lat="45.40844" lon="-0.70234">
        <ele>62</ele>
        <time>2018-03-01T19:56:47Z</time>
      </trkpt>
      <trkpt lat="45.40825" lon="-0.70175">
        <ele>62</ele>
        <time>2018-03-01T19:57:47Z</time>
      </trkpt>
      <trkpt lat="45.40813" lon="-0.7014">
        <ele>62</ele>
        <time>2018-03-01T19:58:47Z</time>
      </trkpt>
      <trkpt lat="45.40791" lon="-0.70078">
        <ele>61</ele>
        <time>2018-03-01T19:59:47Z</time>
      </trkpt>
      <trkpt lat="45.40781" lon="-0.70047">
        <ele>61</ele>
        <time>2018-03-01T20:00:47Z</time>
      </trkpt>
      <trkpt lat="45.40768" lon="-0.70013">
        <ele>61</ele>
        <time>2018-03-01T20:01:47Z</time>
      </trkpt>
      <trkpt lat="45.40748" lon="-0.69968">
        <ele>61</ele>
        <time>2018-03-01T20:02:47Z</time>
      </trkpt>
      <trkpt lat="45.40744" lon="-0.69962">
        <ele>60</ele>
        <time>2018-03-01T20:03:47Z</time>
      </trkpt>
      <trkpt lat="45.40729" lon="-0.69938">
        <ele>60</ele>
        <time>2018-03-01T20:04:47Z</time>
      </trkpt>
      <trkpt lat="45.40723" lon="-0.69929">
        <ele>60</ele>
        <time>2018-03-01T20:05:47Z</time>
      </trkpt>
      <trkpt lat="45.4072" lon="-0.69924">
        <ele>60</ele>
        <time>2018-03-01T20:06:47Z</time>
      </trkpt>
      <trkpt lat="45.40716" lon="-0.69917">
        <ele>60</ele>
        <time>2018-03-01T20:07:47Z</time>
      </trkpt>
      <trkpt lat="45.40705" lon="-0.69891">
        <ele>59</ele>
        <time>2018-03-01T20:08:47Z</time>
      </trkpt>
      <trkpt lat="45.40695" lon="-0.69861">
        <ele>59</ele>
        <time>2018-03-01T20:09:47Z</time>
      </trkpt>
      <trkpt lat="45.40686" lon="-0.69829">
        <ele>59</ele>
        <time>2018-03-01T20:10:47Z</time>
      </trkpt>
      <trkpt lat="45.40679" lon="-0.69793">
        <ele>60</ele>
        <time>2018-03-01T20:11:47Z</time>
      </trkpt>
      <trkpt lat="45.40667" lon="-0.69724">
        <ele>60</ele>
        <time>2018-03-01T20:12:47Z</time>
      </trkpt>
      <trkpt lat="45.40662" lon="-0.69687">
        <ele>61</ele>
        <time>2018-03-01T20:13:47Z</time>
      </trkpt>
      <trkpt lat="45.40648" lon="-0.69616">
        <ele>60</ele>
        <time>2018-03-01T20:14:47Z</time>
      </trkpt>
      <trkpt lat="45.4064" lon="-0.69577">
        <ele>60</ele>
        <time>2018-03-01T20:15:47Z</time>
      </trkpt>
      <trkpt lat="45.4063" lon="-0.69541">
        <ele>60</ele>
        <time>2018-03-01T20:16:47Z</time>
      </trkpt>
      <trkpt lat="45.40628" lon="-0.69508">
        <ele>60</ele>
        <time>2018-03-01T20:17:47Z</time>
      </trkpt>
      <trkpt lat="45.40662" lon="-0.69477">
        <ele>61</ele>
        <time>2018-03-01T20:18:47Z</time>
      </trkpt>
      <trkpt lat="45.40672" lon="-0.69467">
        <ele>61</ele>
        <time>2018-03-01T20:19:47Z</time>
      </trkpt>
      <trkpt lat="45.40675" lon="-0.69464">
        <ele>60</ele>
        <time>2018-03-01T20:20:47Z</time>
      </trkpt>
      <trkpt lat="45.40689" lon="-0.69444">
        <ele>60</ele>
        <time>2018-03-01T20:21:47Z</time>
      </trkpt>
      <trkpt lat="45.40703" lon="-0.69421">
        <ele>60</ele>
        <time>2018-03-01T20:22:47Z</time>
      </trkpt>
      <trkpt lat="45.40707" lon="-0.69415">
        <ele>59</ele>
        <time>2018-03-01T20:23:47Z</time>
      </trkpt>
      <trkpt lat="45.40712" lon="-0.69409">
        <ele>59</ele>
        <time>2018-03-01T20:24:47Z</time>
      </trkpt>
      <trkpt lat="45.40724" lon="-0.69392">
        <ele>58</ele>
        <time>2018-03-01T20:25:47Z</time>
      </trkpt>
      <trkpt lat="45.40743" lon="-0.69373">
        <ele>57</ele>
        <time>2018-03-01T20:26:47Z</time>
      </trkpt>
      <trkpt lat="45.40763" lon="-0.69359">
        <ele>53</ele>
        <time>2018-03-01T20:27:47Z</time>
      </trkpt>
      <trkpt lat="45.4078" lon="-0.69342">
        <ele>49</ele>
        <time>2018-03-01T20:28:47Z</time>
      </trkpt>
      <trkpt lat="45.40791" lon="-0.69324">
        <ele>46</ele>
        <time>2018-03-01T20:29:47Z</time>
      </trkpt>
      <trkpt lat="45.40807" lon="-0.69303">
        <ele>43</ele>
        <time>2018-03-01T20:30:47Z</time>
      </trkpt>
      <trkpt lat="45.40818" lon="-0.69284">
        <ele>40</ele>
        <time>2018-03-01T20:31:47Z</time>
      </trkpt>
      <trkpt lat="45.4082" lon="-0.69272">
        <ele>39</ele>
        <time>2018-03-01T20:32:47Z</time>
      </trkpt>
      <trkpt lat="45.40827" lon="-0.69238">
        <ele>36</ele>
        <time>2018-03-01T20:33:47Z</time>
      </trkpt>
      <trkpt lat="45.40826" lon="-0.69207">
        <ele>36</ele>
        <time>2018-03-01T20:34:47Z</time>
      </trkpt>
      <trkpt lat="45.40827" lon="-0.692">
        <ele>35</ele>
        <time>2018-03-01T20:35:47Z</time>
      </trkpt>
      <trkpt lat="45.40828" lon="-0.69196">
        <ele>35</ele>
        <time>2018-03-01T20:36:47Z</time>
      </trkpt>
      <trkpt lat="45.40842" lon="-0.69174">
        <ele>34</ele>
        <time>2018-03-01T20:37:47Z</time>
      </trkpt>
      <trkpt lat="45.40857" lon="-0.69159">
        <ele>32</ele>
        <time>2018-03-01T20:38:47Z</time>
      </trkpt>
      <trkpt lat="45.4088" lon="-0.69139">
        <ele>31</ele>
        <time>2018-03-01T20:39:47Z</time>
      </trkpt>
      <trkpt lat="45.40901" lon="-0.69122">
        <ele>30</ele>
        <time>2018-03-01T20:40:47Z</time>
      </trkpt>
      <trkpt lat="45.40904" lon="-0.69118">
        <ele>30</ele>
        <time>2018-03-01T20:41:47Z</time>
      </trkpt>
      <trkpt lat="45.40906" lon="-0.69116">
        <ele>29</ele>
        <time>2018-03-01T20:42:47Z</time>
      </trkpt>
      <trkpt lat="45.40918" lon="-0.69088">
        <ele>29</ele>
        <time>2018-03-01T20:43:47Z</time>
      </trkpt>
      <trkpt lat="45.40918" lon="-0.69068">
        <ele>29</ele>
        <time>2018-03-01T20:44:47Z</time>
      </trkpt>
      <trkpt lat="45.40916" lon="-0.69043">
        <ele>28</ele>
        <time>2018-03-01T20:45:47Z</time>
      </trkpt>
      <trkpt lat="45.40914" lon="-0.69015">
        <ele>27</ele>
        <time>2018-03-01T20:46:47Z</time>
      </trkpt>
      <trkpt lat="45.40915" lon="-0.6899">
        <ele>27</ele>
        <time>2018-03-01T20:47:47Z</time>
      </trkpt>
      <trkpt lat="45.40917" lon="-0.68983">
        <ele>27</ele>
        <time>2018-03-01T20:48:47Z</time>
      </trkpt>
      <trkpt lat="45.40926" lon="-0.68956">
        <ele>26</ele>
        <time>2018-03-01T20:49:47Z</time>
      </trkpt>
      <trkpt lat="45.40943" lon="-0.68929">
        <ele>26</ele>
        <time>2018-03-01T20:50:47Z</time>
      </trkpt>
      <trkpt lat="45.40958" lon="-0.68914">
        <ele>25</ele>
        <time>2018-03-01T20:51:47Z</time>
      </trkpt>
      <trkpt lat="45.40977" lon="-0.68904">
        <ele>25</ele>
        <time>2018-03-01T20:52:47Z</time>
      </trkpt>
      <trkpt lat="45.41" lon="-0.68901">
        <ele>24</ele>
        <time>2018-03-01T20:53:47Z</time>
      </trkpt>
      <trkpt lat="45.41023" lon="-0.68902">
        <ele>23</ele>
        <time>2018-03-01T20:54:47Z</time>
      </trkpt>
      <trkpt lat="45.41045" lon="-0.68903">
        <ele>22</ele>
        <time>2018-03-01T20:55:47Z</time>
      </trkpt>
      <trkpt lat="45.41069" lon="-0.68906">
        <ele>22</ele>
        <time>2018-03-01T20:56:47Z</time>
      </trkpt>
      <trkpt lat="45.41091" lon="-0.68907">
        <ele>21</ele>
        <time>2018-03-01T20:57:47Z</time>
      </trkpt>
      <trkpt lat="45.41113" lon="-0.68904">
        <ele>21</ele>
        <time>2018-03-01T20:58:47Z</time>
      </trkpt>
      <trkpt lat="45.41137" lon="-0.68895">
        <ele>22</ele>
        <time>2018-03-01T20:59:47Z</time>
      </trkpt>
      <trkpt lat="45.41156" lon="-0.68886">
        <ele>22</ele>
        <time>2018-03-01T21:00:47Z</time>
      </trkpt>
      <trkpt lat="45.41178" lon="-0.68872">
        <ele>22</ele>
        <time>2018-03-01T21:01:47Z</time>
      </trkpt>
      <trkpt lat="45.41196" lon="-0.68855">
        <ele>22</ele>
        <time>2018-03-01T21:02:47Z</time>
      </trkpt>
      <trkpt lat="45.41217" lon="-0.68832">
        <ele>22</ele>
        <time>2018-03-01T21:03:47Z</time>
      </trkpt>
      <trkpt lat="45.41237" lon="-0.68809">
        <ele>23</ele>
        <time>2018-03-01T21:04:47Z</time>
      </trkpt>
      <trkpt lat="45.41258" lon="-0.68789">
        <ele>23</ele>
        <time>2018-03-01T21:05:47Z</time>
      </trkpt>
      <trkpt lat="45.41279" lon="-0.68767">
        <ele>22</ele>
        <time>2018-03-01T21:06:47Z</time>
      </trkpt>
      <trkpt lat="45.41313" lon="-0.68731">
        <ele>21</ele>
        <time>2018-03-01T21:07:47Z</time>
      </trkpt>
      <trkpt lat="45.41322" lon="-0.68719">
        <ele>20</ele>
        <time>2018-03-01T21:08:47Z</time>
      </trkpt>
      <trkpt lat="45.41336" lon="-0.68707">
        <ele>20</ele>
        <time>2018-03-01T21:09:47Z</time>
      </trkpt>
      <trkpt lat="45.4136" lon="-0.68689">
        <ele>19</ele>
        <time>2018-03-01T21:10:47Z</time>
      </trkpt>
      <trkpt lat="45.41386" lon="-0.68671">
        <ele>18</ele>
        <time>2018-03-01T21:11:47Z</time>
      </trkpt>
      <trkpt lat="45.41407" lon="-0.68656">
        <ele>17</ele>
        <time>2018-03-01T21:12:47Z</time>
      </trkpt>
      <trkpt lat="45.41413" lon="-0.68652">
        <ele>17</ele>
        <time>2018-03-01T21:13:47Z</time>
      </trkpt>
      <trkpt lat="45.41458" lon="-0.68624">
        <ele>17</ele>
        <time>2018-03-01T21:14:47Z</time>
      </trkpt>
      <trkpt lat="45.41484" lon="-0.68609">
        <ele>18</ele>
        <time>2018-03-01T21:15:47Z</time>
      </trkpt>
      <trkpt lat="45.4149" lon="-0.68607">
        <ele>18</ele>
        <time>2018-03-01T21:16:47Z</time>
      </trkpt>
      <trkpt lat="45.41495" lon="-0.68603">
        <ele>18</ele>
        <time>2018-03-01T21:17:47Z</time>
      </trkpt>
      <trkpt lat="45.41524" lon="-0.6859">
        <ele>19</ele>
        <time>2018-03-01T21:18:47Z</time>
      </trkpt>
      <trkpt lat="45.41551" lon="-0.68579">
        <ele>20</ele>
        <time>2018-03-01T21:19:47Z</time>
      </trkpt>
      <trkpt lat="45.41574" lon="-0.68569">
        <ele>21</ele>
        <time>2018-03-01T21:20:47Z</time>
      </trkpt>
      <trkpt lat="45.416" lon="-0.68555">
        <ele>22</ele>
        <time>2018-03-01T21:21:47Z</time>
      </trkpt>
      <trkpt lat="45.41645" lon="-0.68517">
        <ele>25</ele>
        <time>2018-03-01T21:22:47Z</time>
      </trkpt>
      <trkpt lat="45.41654" lon="-0.68522">
        <ele>25</ele>
        <time>2018-03-01T21:23:47Z</time>
      </trkpt>
      <trkpt lat="45.41653" lon="-0.68524">
        <ele>25</ele>
        <time>2018-03-01T21:24:47Z</time>
      </trkpt>
      <trkpt lat="45.41678" lon="-0.68585">
        <ele>24</ele>
        <time>2018-03-01T21:25:47Z</time>
      </trkpt>
      <trkpt lat="45.41689" lon="-0.6861">
        <ele>25</ele>
        <time>2018-03-01T21:26:47Z</time>
      </trkpt>
      <trkpt lat="45.41698" lon="-0.68628">
        <ele>25</ele>
        <time>2018-03-01T21:27:47Z</time>
      </trkpt>
      <trkpt lat="45.4171" lon="-0.68649">
        <ele>25</ele>
        <time>2018-03-01T21:28:47Z</time>
      </trkpt>
      <trkpt lat="45.41746" lon="-0.68711">
        <ele>26</ele>
        <time>2018-03-01T21:29:47Z</time>
      </trkpt>
      <trkpt lat="45.41754" lon="-0.6873">
        <ele>26</ele>
        <time>2018-03-01T21:30:47Z</time>
      </trkpt>
      <trkpt lat="45.41766" lon="-0.68756">
        <ele>26</ele>
        <time>2018-03-01T21:31:47Z</time>
      </trkpt>
      <trkpt lat="45.41774" lon="-0.68774">
        <ele>25</ele>
        <time>2018-03-01T21:32:47Z</time>
      </trkpt>
      <trkpt lat="45.41787" lon="-0.68798">
        <ele>25</ele>
        <time>2018-03-01T21:33:47Z</time>
      </trkpt>
      <trkpt lat="45.41801" lon="-0.68821">
        <ele>24</ele>
        <time>2018-03-01T21:34:47Z</time>
      </trkpt>
      <trkpt lat="45.41822" lon="-0.68853">
        <ele>23</ele>
        <time>2018-03-01T21:35:47Z</time>
      </trkpt>
      <trkpt lat="45.41823" lon="-0.68854">
        <ele>23</ele>
        <time>2018-03-01T21:36:47Z</time>
      </trkpt>
      <trkpt lat="45.41837" lon="-0.68878">
        <ele>23</ele>
        <time>2018-03-01T21:37:47Z</time>
      </trkpt>
      <trkpt lat="45.41848" lon="-0.68899">
        <ele>23</ele>
        <time>2018-03-01T21:38:47Z</time>
      </trkpt>
      <trkpt lat="45.4186" lon="-0.68922">
        <ele>23</ele>
        <time>2018-03-01T21:39:47Z</time>
      </trkpt>
      <trkpt lat="45.41868" lon="-0.68938">
        <ele>23</ele>
        <time>2018-03-01T21:40:47Z</time>
      </trkpt>
      <trkpt lat="45.41882" lon="-0.68958">
        <ele>22</ele>
        <time>2018-03-01T21:41:47Z</time>
      </trkpt>
      <trkpt lat="45.41913" lon="-0.68994">
        <ele>22</ele>
        <time>2018-03-01T21:42:47Z</time>
      </trkpt>
      <trkpt lat="45.41927" lon="-0.69014">
        <ele>22</ele>
        <time>2018-03-01T21:43:47Z</time>
      </trkpt>
      <trkpt lat="45.41944" lon="-0.69034">
        <ele>21</ele>
        <time>2018-03-01T21:44:47Z</time>
      </trkpt>
      <trkpt lat="45.4196" lon="-0.69056">
        <ele>21</ele>
        <time>2018-03-01T21:45:47Z</time>
      </trkpt>
      <trkpt lat="45.41976" lon="-0.69079">
        <ele>21</ele>
        <time>2018-03-01T21:46:47Z</time>
      </trkpt>
      <trkpt lat="45.41986" lon="-0.69093">
        <ele>21</ele>
        <time>2018-03-01T21:47:47Z</time>
      </trkpt>
      <trkpt lat="45.41993" lon="-0.69102">
        <ele>21</ele>
        <time>2018-03-01T21:48:47Z</time>
      </trkpt>
      <trkpt lat="45.42" lon="-0.69113">
        <ele>21</ele>
        <time>2018-03-01T21:49:47Z</time>
      </trkpt>
      <trkpt lat="45.42003" lon="-0.69113">
        <ele>21</ele>
        <time>2018-03-01T21:50:47Z</time>
      </trkpt>
      <trkpt lat="45.42002" lon="-0.69111">
        <ele>21</ele>
        <time>2018-03-01T21:51:47Z</time>
      </trkpt>
      <trkpt lat="45.42" lon="-0.69118">
        <ele>20</ele>
        <time>2018-03-01T21:52:47Z</time>
      </trkpt>
      <trkpt lat="45.41994" lon="-0.6913">
        <ele>20</ele>
        <time>2018-03-01T21:53:47Z</time>
      </trkpt>
      <trkpt lat="45.41982" lon="-0.69148">
        <ele>18</ele>
        <time>2018-03-01T21:54:47Z</time>
      </trkpt>
      <trkpt lat="45.4198" lon="-0.6915">
        <ele>18</ele>
        <time>2018-03-01T21:55:47Z</time>
      </trkpt>
      <trkpt lat="45.41971" lon="-0.69168">
        <ele>17</ele>
        <time>2018-03-01T21:56:47Z</time>
      </trkpt>
      <trkpt lat="45.41958" lon="-0.69193">
        <ele>16</ele>
        <time>2018-03-01T21:57:47Z</time>
      </trkpt>
      <trkpt lat="45.4194" lon="-0.69226">
        <ele>15</ele>
        <time>2018-03-01T21:58:47Z</time>
      </trkpt>
      <trkpt lat="45.41909" lon="-0.69275">
        <ele>12</ele>
        <time>2018-03-01T21:59:47Z</time>
      </trkpt>
      <trkpt lat="45.41877" lon="-0.69325">
        <ele>12</ele>
        <time>2018-03-01T22:00:47Z</time>
      </trkpt>
      <trkpt lat="45.41851" lon="-0.69374">
        <ele>13</ele>
        <time>2018-03-01T22:01:47Z</time>
      </trkpt>
      <trkpt lat="45.41839" lon="-0.69398">
        <ele>14</ele>
        <time>2018-03-01T22:02:47Z</time>
      </trkpt>
      <trkpt lat="45.41828" lon="-0.69425">
        <ele>15</ele>
        <time>2018-03-01T22:03:47Z</time>
      </trkpt>
      <trkpt lat="45.41816" lon="-0.6945">
        <ele>16</ele>
        <time>2018-03-01T22:04:47Z</time>
      </trkpt>
      <trkpt lat="45.41803" lon="-0.69475">
        <ele>16</ele>
        <time>2018-03-01T22:05:47Z</time>
      </trkpt>
      <trkpt lat="45.41789" lon="-0.69494">
        <ele>17</ele>
        <time>2018-03-01T22:06:47Z</time>
      </trkpt>
      <trkpt lat="45.41773" lon="-0.69512">
        <ele>17</ele>
        <time>2018-03-01T22:07:47Z</time>
      </trkpt>
      <trkpt lat="45.41771" lon="-0.69515">
        <ele>17</ele>
        <time>2018-03-01T22:08:47Z</time>
      </trkpt>
      <trkpt lat="45.41755" lon="-0.69534">
        <ele>18</ele>
        <time>2018-03-01T22:09:47Z</time>
      </trkpt>
      <trkpt lat="45.41746" lon="-0.6955">
        <ele>18</ele>
        <time>2018-03-01T22:10:47Z</time>
      </trkpt>
      <trkpt lat="45.41742" lon="-0.69554">
        <ele>18</ele>
        <time>2018-03-01T22:11:47Z</time>
      </trkpt>
      <trkpt lat="45.41725" lon="-0.69579">
        <ele>19</ele>
        <time>2018-03-01T22:12:47Z</time>
      </trkpt>
      <trkpt lat="45.41714" lon="-0.69598">
        <ele>20</ele>
        <time>2018-03-01T22:13:47Z</time>
      </trkpt>
      <trkpt lat="45.41697" lon="-0.69624">
        <ele>21</ele>
        <time>2018-03-01T22:14:47Z</time>
      </trkpt>
      <trkpt lat="45.41686" lon="-0.69643">
        <ele>21</ele>
        <time>2018-03-01T22:15:47Z</time>
      </trkpt>
      <trkpt lat="45.4168" lon="-0.69666">
        <ele>21</ele>
        <time>2018-03-01T22:16:47Z</time>
      </trkpt>
      <trkpt lat="45.4168" lon="-0.69673">
        <ele>21</ele>
        <time>2018-03-01T22:17:47Z</time>
      </trkpt>
      <trkpt lat="45.4169" lon="-0.69698">
        <ele>21</ele>
        <time>2018-03-01T22:18:47Z</time>
      </trkpt>
      <trkpt lat="45.41696" lon="-0.69707">
        <ele>21</ele>
        <time>2018-03-01T22:19:47Z</time>
      </trkpt>
      <trkpt lat="45.41702" lon="-0.6972">
        <ele>20</ele>
        <time>2018-03-01T22:20:47Z</time>
      </trkpt>
      <trkpt lat="45.41719" lon="-0.69753">
        <ele>20</ele>
        <time>2018-03-01T22:21:47Z</time>
      </trkpt>
      <trkpt lat="45.41735" lon="-0.69779">
        <ele>20</ele>
        <time>2018-03-01T22:22:47Z</time>
      </trkpt>
      <trkpt lat="45.41752" lon="-0.69801">
        <ele>21</ele>
        <time>2018-03-01T22:23:47Z</time>
      </trkpt>
      <trkpt lat="45.4177" lon="-0.69821">
        <ele>21</ele>
        <time>2018-03-01T22:24:47Z</time>
      </trkpt>
      <trkpt lat="45.41778" lon="-0.69828">
        <ele>21</ele>
        <time>2018-03-01T22:25:47Z</time>
      </trkpt>
      <trkpt lat="45.41786" lon="-0.69836">
        <ele>21</ele>
        <time>2018-03-01T22:26:47Z</time>
      </trkpt>
      <trkpt lat="45.41797" lon="-0.69855">
        <ele>22</ele>
        <time>2018-03-01T22:27:47Z</time>
      </trkpt>
      <trkpt lat="45.41811" lon="-0.69872">
        <ele>22</ele>
        <time>2018-03-01T22:28:47Z</time>
      </trkpt>
      <trkpt lat="45.41823" lon="-0.69886">
        <ele>23</ele>
        <time>2018-03-01T22:29:47Z</time>
      </trkpt>
      <trkpt lat="45.41837" lon="-0.6991">
        <ele>25</ele>
        <time>2018-03-01T22:30:47Z</time>
      </trkpt>
      <trkpt lat="45.41861" lon="-0.69951">
        <ele>25</ele>
        <time>2018-03-01T22:31:47Z</time>
      </trkpt>
      <trkpt lat="45.41876" lon="-0.69985">
        <ele>25</ele>
        <time>2018-03-01T22:32:47Z</time>
      </trkpt>
      <trkpt lat="45.41885" lon="-0.70002">
        <ele>25</ele>
        <time>2018-03-01T22:33:47Z</time>
      </trkpt>
      <trkpt lat="45.41894" lon="-0.70023">
        <ele>25</ele>
        <time>2018-03-01T22:34:47Z</time>
      </trkpt>
      <trkpt lat="45.41903" lon="-0.70044">
        <ele>25</ele>
        <time>2018-03-01T22:35:47Z</time>
      </trkpt>
      <trkpt lat="45.41911" lon="-0.70062">
        <ele>25</ele>
        <time>2018-03-01T22:36:47Z</time>
      </trkpt>
      <trkpt lat="45.41926" lon="-0.70068">
        <ele>25</ele>
        <time>2018-03-01T22:37:47Z</time>
      </trkpt>
      <trkpt lat="45.41943" lon="-0.70052">
        <ele>25</ele>
        <time>2018-03-01T22:38:47Z</time>
      </trkpt>
      <trkpt lat="45.4198" lon="-0.70009">
        <ele>26</ele>
        <time>2018-03-01T22:39:47Z</time>
      </trkpt>
      <trkpt lat="45.41984" lon="-0.7001">
        <ele>26</ele>
        <time>2018-03-01T22:40:47Z</time>
      </trkpt>
      <trkpt lat="45.41997" lon="-0.70029">
        <ele>26</ele>
        <time>2018-03-01T22:41:47Z</time>
      </trkpt>
      <trkpt lat="45.42013" lon="-0.70056">
        <ele>26</ele>
        <time>2018-03-01T22:42:47Z</time>
      </trkpt>
      <trkpt lat="45.4203" lon="-0.70077">
        <ele>27</ele>
        <time>2018-03-01T22:43:47Z</time>
      </trkpt>
      <trkpt lat="45.42052" lon="-0.70074">
        <ele>27</ele>
        <time>2018-03-01T22:44:47Z</time>
      </trkpt>
      <trkpt lat="45.42064" lon="-0.70079">
        <ele>28</ele>
        <time>2018-03-01T22:45:47Z</time>
      </trkpt>
      <trkpt lat="45.42072" lon="-0.70103">
        <ele>27</ele>
        <time>2018-03-01T22:46:47Z</time>
      </trkpt>
      <trkpt lat="45.42075" lon="-0.70112">
        <ele>26</ele>
        <time>2018-03-01T22:47:47Z</time>
      </trkpt>
      <trkpt lat="45.42078" lon="-0.70117">
        <ele>26</ele>
        <time>2018-03-01T22:48:47Z</time>
      </trkpt>
      <trkpt lat="45.42078" lon="-0.70121">
        <ele>26</ele>
        <time>2018-03-01T22:49:47Z</time>
      </trkpt>
      <trkpt lat="45.42077" lon="-0.70128">
        <ele>26</ele>
        <time>2018-03-01T22:50:47Z</time>
      </trkpt>
      <trkpt lat="45.42077" lon="-0.70133">
        <ele>26</ele>
        <time>2018-03-01T22:51:47Z</time>
      </trkpt>
      <trkpt lat="45.42078" lon="-0.70159">
        <ele>24</ele>
        <time>2018-03-01T22:52:47Z</time>
      </trkpt>
      <trkpt lat="45.42085" lon="-0.70208">
        <ele>23</ele>
        <time>2018-03-01T22:53:47Z</time>
      </trkpt>
      <trkpt lat="45.42089" lon="-0.70239">
        <ele>22</ele>
        <time>2018-03-01T22:54:47Z</time>
      </trkpt>
      <trkpt lat="45.42093" lon="-0.70267">
        <ele>21</ele>
        <time>2018-03-01T22:55:47Z</time>
      </trkpt>
      <trkpt lat="45.42097" lon="-0.70303">
        <ele>20</ele>
        <time>2018-03-01T22:56:47Z</time>
      </trkpt>
      <trkpt lat="45.42112" lon="-0.7032">
        <ele>19</ele>
        <time>2018-03-01T22:57:47Z</time>
      </trkpt>
      <trkpt lat="45.42136" lon="-0.70323">
        <ele>19</ele>
        <time>2018-03-01T22:58:47Z</time>
      </trkpt>
      <trkpt lat="45.42162" lon="-0.7033">
        <ele>18</ele>
        <time>2018-03-01T22:59:47Z</time>
      </trkpt>
      <trkpt lat="45.42217" lon="-0.70355">
        <ele>17</ele>
        <time>2018-03-01T23:00:47Z</time>
      </trkpt>
      <trkpt lat="45.42219" lon="-0.70356">
        <ele>17</ele>
        <time>2018-03-01T23:01:47Z</time>
      </trkpt>
      <trkpt lat="45.42242" lon="-0.70364">
        <ele>17</ele>
        <time>2018-03-01T23:02:47Z</time>
      </trkpt>
      <trkpt lat="45.42264" lon="-0.7037">
        <ele>17</ele>
        <time>2018-03-01T23:03:47Z</time>
      </trkpt>
      <trkpt lat="45.42288" lon="-0.7037">
        <ele>17</ele>
        <time>2018-03-01T23:04:47Z</time>
      </trkpt>
      <trkpt lat="45.42308" lon="-0.70365">
        <ele>18</ele>
        <time>2018-03-01T23:05:47Z</time>
      </trkpt>
      <trkpt lat="45.42325" lon="-0.70351">
        <ele>18</ele>
        <time>2018-03-01T23:06:47Z</time>
      </trkpt>
      <trkpt lat="45.4235" lon="-0.70331">
        <ele>19</ele>
        <time>2018-03-01T23:07:47Z</time>
      </trkpt>
      <trkpt lat="45.42382" lon="-0.70308">
        <ele>21</ele>
        <time>2018-03-01T23:08:47Z</time>
      </trkpt>
      <trkpt lat="45.42399" lon="-0.70293">
        <ele>22</ele>
        <time>2018-03-01T23:09:47Z</time>
      </trkpt>
      <trkpt lat="45.42418" lon="-0.70277">
        <ele>22</ele>
        <time>2018-03-01T23:10:47Z</time>
      </trkpt>
      <trkpt lat="45.42433" lon="-0.70271">
        <ele>22</ele>
        <time>2018-03-01T23:11:47Z</time>
      </trkpt>
      <trkpt lat="45.42444" lon="-0.70294">
        <ele>21</ele>
        <time>2018-03-01T23:12:47Z</time>
      </trkpt>
      <trkpt lat="45.42456" lon="-0.70318">
        <ele>21</ele>
        <time>2018-03-01T23:13:47Z</time>
      </trkpt>
      <trkpt lat="45.42467" lon="-0.70336">
        <ele>21</ele>
        <time>2018-03-01T23:14:47Z</time>
      </trkpt>
      <trkpt lat="45.42484" lon="-0.70361">
        <ele>20</ele>
        <time>2018-03-01T23:15:47Z</time>
      </trkpt>
      <trkpt lat="45.42499" lon="-0.70383">
        <ele>19</ele>
        <time>2018-03-01T23:16:47Z</time>
      </trkpt>
      <trkpt lat="45.42515" lon="-0.70408">
        <ele>18</ele>
        <time>2018-03-01T23:17:47Z</time>
      </trkpt>
      <trkpt lat="45.42529" lon="-0.70426">
        <ele>17</ele>
        <time>2018-03-01T23:18:47Z</time>
      </trkpt>
      <trkpt lat="45.42546" lon="-0.70443">
        <ele>15</ele>
        <time>2018-03-01T23:19:47Z</time>
      </trkpt>
      <trkpt lat="45.42566" lon="-0.70461">
        <ele>14</ele>
        <time>2018-03-01T23:20:47Z</time>
      </trkpt>
      <trkpt lat="45.42608" lon="-0.70493">
        <ele>12</ele>
        <time>2018-03-01T23:21:47Z</time>
      </trkpt>
      <trkpt lat="45.42621" lon="-0.70506">
        <ele>12</ele>
        <time>2018-03-01T23:22:47Z</time>
      </trkpt>
      <trkpt lat="45.42631" lon="-0.70517">
        <ele>11</ele>
        <time>2018-03-01T23:23:47Z</time>
      </trkpt>
      <trkpt lat="45.42641" lon="-0.70523">
        <ele>11</ele>
        <time>2018-03-01T23:24:47Z</time>
      </trkpt>
      <trkpt lat="45.42664" lon="-0.70533">
        <ele>10</ele>
        <time>2018-03-01T23:25:47Z</time>
      </trkpt>
      <trkpt lat="45.42678" lon="-0.70538">
        <ele>9</ele>
        <time>2018-03-01T23:26:47Z</time>
      </trkpt>
      <trkpt lat="45.42697" lon="-0.70556">
        <ele>9</ele>
        <time>2018-03-01T23:27:47Z</time>
      </trkpt>
      <trkpt lat="45.42713" lon="-0.70584">
        <ele>8</ele>
        <time>2018-03-01T23:28:47Z</time>
      </trkpt>
      <trkpt lat="45.42715" lon="-0.7059">
        <ele>9</ele>
        <time>2018-03-01T23:29:47Z</time>
      </trkpt>
      <trkpt lat="45.42716" lon="-0.70593">
        <ele>9</ele>
        <time>2018-03-01T23:30:47Z</time>
      </trkpt>
      <trkpt lat="45.42718" lon="-0.70596">
        <ele>9</ele>
        <time>2018-03-01T23:31:47Z</time>
      </trkpt>
      <trkpt lat="45.42717" lon="-0.70597">
        <ele>9</ele>
        <time>2018-03-01T23:32:47Z</time>
      </trkpt>
      <trkpt lat="45.42724" lon="-0.70623">
        <ele>9</ele>
        <time>2018-03-01T23:33:47Z</time>
      </trkpt>
      <trkpt lat="45.42726" lon="-0.70632">
        <ele>9</ele>
        <time>2018-03-01T23:34:47Z</time>
      </trkpt>
      <trkpt lat="45.42727" lon="-0.70635">
        <ele>9</ele>
        <time>2018-03-01T23:35:47Z</time>
      </trkpt>
      <trkpt lat="45.42727" lon="-0.70641">
        <ele>9</ele>
        <time>2018-03-01T23:36:47Z</time>
      </trkpt>
      <trkpt lat="45.4273" lon="-0.70652">
        <ele>9</ele>
        <time>2018-03-01T23:37:47Z</time>
      </trkpt>
      <trkpt lat="45.42731" lon="-0.70658">
        <ele>10</ele>
        <time>2018-03-01T23:38:47Z</time>
      </trkpt>
      <trkpt lat="45.42743" lon="-0.707">
        <ele>12</ele>
        <time>2018-03-01T23:39:47Z</time>
      </trkpt>
      <trkpt lat="45.42748" lon="-0.70709">
        <ele>12</ele>
        <time>2018-03-01T23:40:47Z</time>
      </trkpt>
      <trkpt lat="45.42754" lon="-0.70712">
        <ele>12</ele>
        <time>2018-03-01T23:41:47Z</time>
      </trkpt>
      <trkpt lat="45.42777" lon="-0.70711">
        <ele>11</ele>
        <time>2018-03-01T23:42:47Z</time>
      </trkpt>
      <trkpt lat="45.4279" lon="-0.70709">
        <ele>11</ele>
        <time>2018-03-01T23:43:47Z</time>
      </trkpt>
      <trkpt lat="45.428" lon="-0.70705">
        <ele>10</ele>
        <time>2018-03-01T23:44:47Z</time>
      </trkpt>
      <trkpt lat="45.42804" lon="-0.70705">
        <ele>10</ele>
        <time>2018-03-01T23:45:47Z</time>
      </trkpt>
      <trkpt lat="45.42822" lon="-0.70701">
        <ele>10</ele>
        <time>2018-03-01T23:46:47Z</time>
      </trkpt>
      <trkpt lat="45.42823" lon="-0.70701">
        <ele>10</ele>
        <time>2018-03-01T23:47:47Z</time>
      </trkpt>
      <trkpt lat="45.42842" lon="-0.70696">
        <ele>10</ele>
        <time>2018-03-01T23:48:47Z</time>
      </trkpt>
      <trkpt lat="45.42858" lon="-0.70693">
        <ele>10</ele>
        <time>2018-03-01T23:49:47Z</time>
      </trkpt>
      <trkpt lat="45.4286" lon="-0.70692">
        <ele>10</ele>
        <time>2018-03-01T23:50:47Z</time>
      </trkpt>
      <trkpt lat="45.42861" lon="-0.70687">
        <ele>10</ele>
        <time>2018-03-01T23:51:47Z</time>
      </trkpt>
      <trkpt lat="45.42862" lon="-0.70686">
        <ele>10</ele>
        <time>2018-03-01T23:52:47Z</time>
      </trkpt>
      <trkpt lat="45.42867" lon="-0.70687">
        <ele>10</ele>
        <time>2018-03-01T23:53:47Z</time>
      </trkpt>
      <trkpt lat="45.42889" lon="-0.70684">
        <ele>11</ele>
        <time>2018-03-01T23:54:47Z</time>
      </trkpt>
      <trkpt lat="45.42909" lon="-0.70672">
        <ele>12</ele>
        <time>2018-03-01T23:55:47Z</time>
      </trkpt>
      <trkpt lat="45.42927" lon="-0.70662">
        <ele>12</ele>
        <time>2018-03-01T23:56:47Z</time>
      </trkpt>
      <trkpt lat="45.42943" lon="-0.70652">
        <ele>11</ele>
        <time>2018-03-01T23:57:47Z</time>
      </trkpt>
      <trkpt lat="45.42962" lon="-0.70641">
        <ele>10</ele>
        <time>2018-03-01T23:58:47Z</time>
      </trkpt>
      <trkpt lat="45.42984" lon="-0.70628">
        <ele>9</ele>
        <time>2018-03-01T23:59:47Z</time>
      </trkpt>
      <trkpt lat="45.42989" lon="-0.70626">
        <ele>9</ele>
        <time>2018-03-02T00:00:47Z</time>
      </trkpt>
      <trkpt lat="45.43008" lon="-0.70613">
        <ele>7</ele>
        <time>2018-03-02T00:01:47Z</time>
      </trkpt>
      <trkpt lat="45.43017" lon="-0.70608">
        <ele>7</ele>
        <time>2018-03-02T00:02:47Z</time>
      </trkpt>
      <trkpt lat="45.43032" lon="-0.70597">
        <ele>6</ele>
        <time>2018-03-02T00:03:47Z</time>
      </trkpt>
      <trkpt lat="45.4305" lon="-0.70584">
        <ele>6</ele>
        <time>2018-03-02T00:04:47Z</time>
      </trkpt>
      <trkpt lat="45.43068" lon="-0.70572">
        <ele>6</ele>
        <time>2018-03-02T00:05:47Z</time>
      </trkpt>
      <trkpt lat="45.43075" lon="-0.70567">
        <ele>6</ele>
        <time>2018-03-02T00:06:47Z</time>
      </trkpt>
      <trkpt lat="45.43096" lon="-0.70551">
        <ele>7</ele>
        <time>2018-03-02T00:07:47Z</time>
      </trkpt>
      <trkpt lat="45.43111" lon="-0.70544">
        <ele>8</ele>
        <time>2018-03-02T00:08:47Z</time>
      </trkpt>
      <trkpt lat="45.43124" lon="-0.70539">
        <ele>9</ele>
        <time>2018-03-02T00:09:47Z</time>
      </trkpt>
      <trkpt lat="45.43144" lon="-0.7053">
        <ele>10</ele>
        <time>2018-03-02T00:10:47Z</time>
      </trkpt>
      <trkpt lat="45.43176" lon="-0.70517">
        <ele>11</ele>
        <time>2018-03-02T00:11:47Z</time>
      </trkpt>
      <trkpt lat="45.43189" lon="-0.70512">
        <ele>12</ele>
        <time>2018-03-02T00:12:47Z</time>
      </trkpt>
      <trkpt lat="45.43205" lon="-0.70503">
        <ele>12</ele>
        <time>2018-03-02T00:13:47Z</time>
      </trkpt>
      <trkpt lat="45.43209" lon="-0.70503">
        <ele>12</ele>
        <time>2018-03-02T00:14:47Z</time>
      </trkpt>
      <trkpt lat="45.4323" lon="-0.70492">
        <ele>12</ele>
        <time>2018-03-02T00:15:47Z</time>
      </trkpt>
      <trkpt lat="45.43237" lon="-0.70486">
        <ele>13</ele>
        <time>2018-03-02T00:16:47Z</time>
      </trkpt>
      <trkpt lat="45.4324" lon="-0.70475">
        <ele>13</ele>
        <time>2018-03-02T00:17:47Z</time>
      </trkpt>
      <trkpt lat="45.43241" lon="-0.7047">
        <ele>13</ele>
        <time>2018-03-02T00:18:47Z</time>
      </trkpt>
      <trkpt lat="45.43242" lon="-0.70468">
        <ele>13</ele>
        <time>2018-03-02T00:19:47Z</time>
      </trkpt>
      <trkpt lat="45.43241" lon="-0.70468">
        <ele>13</ele>
        <time>2018-03-02T00:20:47Z</time>
      </trkpt>
      <trkpt lat="45.43241" lon="-0.70468">
        <ele>13</ele>
        <time>2018-03-02T00:21:47Z</time>
      </trkpt>
      <trkpt lat="45.43242" lon="-0.70467">
        <ele>13</ele>
        <time>2018-03-02T00:22:47Z</time>
      </trkpt>
    </trkseg>
  </trk>
</gpx>